Time;durP1;ratioP1;P1;durP2;ratioP2;P2;SDS_P1;SDS_P2;PMS_P1;PMS_P2;Temp;Humidity;BMP_temperature;BMP_pressure;BME280_temperature;BME280_humidity;BME280_pressure;Samples;Min_cycle;Max_cycle;Signal;HPM_P1;HPM_P2
2023/04/27 00:01:56;;;;;;;;;6.00;4.25;;;;;4.38;80.23;98563.66;4996485;28;103375;-74
2023/04/27 00:04:33;;;;;;;;;6.00;4.75;;;;;4.32;78.89;98569.66;4963165;28;101844;-74
2023/04/27 00:07:37;;;;;;;;;3.00;3.00;;;;;4.30;79.44;98566.31;4969588;27;101554;-74
2023/04/27 00:10:31;;;;;;;;;8.00;6.00;;;;;4.27;78.56;98566.66;4966045;28;103178;-74
2023/04/27 00:13:19;;;;;;;;;7.25;6.25;;;;;4.27;78.50;98576.53;4959305;28;106869;-74
2023/04/27 00:15:52;;;;;;;;;8.50;8.00;;;;;4.18;79.70;98564.97;4964215;28;103404;-76
2023/04/27 00:18:20;;;;;;;;;5.50;5.50;;;;;4.11;80.11;98561.22;4970489;28;101517;-74
2023/04/27 00:20:47;;;;;;;;;7.75;6.25;;;;;4.09;79.92;98570.44;4966094;28;102711;-75
2023/04/27 00:23:14;;;;;;;;;12.00;10.00;;;;;4.03;79.29;98553.19;4969929;28;103384;-75
2023/04/27 00:25:41;;;;;;;;;7.00;7.00;;;;;4.03;78.17;98563.88;4959873;28;102046;-75
2023/04/27 00:28:07;;;;;;;;;10.00;7.75;;;;;3.98;79.08;98560.84;4960234;27;101965;-74
2023/04/27 00:30:34;;;;;;;;;8.00;7.00;;;;;3.96;78.67;98568.22;4978629;28;101894;-73
2023/04/27 00:33:01;;;;;;;;;7.00;6.00;;;;;3.91;79.73;98559.81;4961862;28;103505;-74
2023/04/27 00:35:28;;;;;;;;;7.00;7.00;;;;;3.81;82.18;98565.28;4969987;28;104645;-71
2023/04/27 00:37:55;;;;;;;;;10.75;7.00;;;;;3.72;83.65;98560.06;4963170;27;101957;-74
2023/04/27 00:40:22;;;;;;;;;9.00;6.75;;;;;3.65;83.83;98567.03;4968865;27;101760;-74
2023/04/27 00:42:49;;;;;;;;;10.75;9.00;;;;;3.59;83.96;98566.66;4966310;28;103452;-73
2023/04/27 00:45:16;;;;;;;;;4.50;3.00;;;;;3.01;83.83;98480.13;4960055;28;101726;-73
2023/04/27 00:47:44;;;;;;;;;4.50;2.25;;;;;3.52;83.96;98568.28;4957542;28;101675;-74
2023/04/27 00:50:11;;;;;;;;;6.00;5.25;;;;;3.26;83.48;98532.69;4960583;28;101773;-74
2023/04/27 00:52:39;;;;;;;;;5.25;3.00;;;;;3.36;85.03;98565.50;4960134;27;104767;-74
2023/04/27 00:55:07;;;;;;;;;5.50;5.00;;;;;3.26;86.24;98569.25;4965010;27;101655;-72
2023/04/27 00:57:34;;;;;;;;;6.00;5.00;;;;;3.21;86.32;98575.06;4954230;27;101699;-73
2023/04/27 01:00:05;;;;;;;;;7.50;7.25;;;;;3.13;86.37;98567.84;4966746;27;101832;-73
2023/04/27 01:02:33;;;;;;;;;6.25;3.50;;;;;3.09;86.74;98576.31;4936681;28;103365;-72
2023/04/27 01:05:11;;;;;;;;;8.50;7.00;;;;;3.02;86.48;98572.56;4950923;28;103049;-73
2023/04/27 01:08:08;;;;;;;;;5.25;4.50;;;;;2.91;85.74;98576.34;4949348;28;106900;-74
2023/04/27 01:10:54;;;;;;;;;10.75;10.25;;;;;2.77;87.76;98573.38;4961209;27;102686;-74
2023/04/27 01:13:38;;;;;;;;;17.00;11.00;;;;;2.65;87.43;98578.09;4955052;28;107876;-72
2023/04/27 01:16:20;;;;;;;;;15.50;14.75;;;;;2.61;87.05;98571.41;4957768;28;102021;-74
2023/04/27 01:18:55;;;;;;;;;14.50;12.50;;;;;2.58;87.08;98572.53;4951898;27;106109;-74
2023/04/27 01:21:22;;;;;;;;;11.00;9.00;;;;;2.50;86.51;98577.78;4961474;28;101883;-74
2023/04/27 01:23:49;;;;;;;;;9.50;7.50;;;;;2.45;87.22;98584.56;4960677;27;103374;-74
2023/04/27 01:26:16;;;;;;;;;13.00;11.50;;;;;2.39;87.84;98582.47;4962469;28;101781;-73
2023/04/27 01:28:43;;;;;;;;;10.00;8.50;;;;;2.36;88.22;98580.97;4958597;28;101562;-73
2023/04/27 01:31:10;;;;;;;;;6.00;5.00;;;;;2.33;87.15;98581.28;4958932;27;101445;-73
2023/04/27 01:33:38;;;;;;;;;6.75;6.25;;;;;2.26;88.33;98585.50;4963730;28;103747;-73
2023/04/27 01:36:06;;;;;;;;;10.50;6.75;;;;;2.18;89.85;98583.59;4961942;27;104532;-73
2023/04/27 01:38:34;;;;;;;;;10.00;7.00;;;;;2.06;90.19;98583.94;4956029;27;101565;-73
2023/04/27 01:41:03;;;;;;;;;5.50;5.00;;;;;2.10;89.27;98591.50;4963713;27;101875;-71
2023/04/27 01:43:31;;;;;;;;;6.00;6.00;;;;;2.09;89.15;98602.31;4950139;28;108338;-74
2023/04/27 01:46:06;;;;;;;;;5.00;5.00;;;;;2.02;89.73;98588.75;4956342;28;102248;-74
2023/04/27 01:48:34;;;;;;;;;12.00;7.00;;;;;2.01;90.01;98591.53;4954386;28;101614;-72
2023/04/27 01:51:01;;;;;;;;;5.00;5.00;;;;;1.99;90.63;98593.50;4968891;28;101884;-72
2023/04/27 01:53:28;;;;;;;;;10.25;9.00;;;;;1.93;91.61;98589.63;4960406;28;107839;-75
2023/04/27 01:55:58;;;;;;;;;12.00;10.25;;;;;1.79;92.10;98590.09;4963947;28;102514;-75
2023/04/27 01:58:26;;;;;;;;;26.00;23.00;;;;;1.67;92.92;98588.56;4964411;28;102183;-75
2023/04/27 02:00:53;;;;;;;;;27.00;21.00;;;;;1.62;93.38;98585.53;4953751;28;101883;-75
2023/04/27 02:03:20;;;;;;;;;39.00;25.33;;;;;1.59;94.12;98589.31;4962438;28;103227;-74
2023/04/27 02:05:47;;;;;;;;;20.50;15.50;;;;;1.60;93.34;98593.66;4956761;28;101866;-74
2023/04/27 02:08:15;;;;;;;;;15.67;14.00;;;;;1.61;94.02;98607.84;4956382;28;101627;-74
2023/04/27 02:10:42;;;;;;;;;12.25;12.25;;;;;1.47;93.11;98581.66;4934067;28;101600;-74
2023/04/27 02:13:08;;;;;;;;;10.25;10.25;;;;;1.56;92.51;98599.44;4959471;28;103514;-74
2023/04/27 02:15:35;;;;;;;;;9.75;9.25;;;;;1.54;92.16;98594.22;4954419;28;101722;-73
2023/04/27 02:18:03;;;;;;;;;9.00;9.00;;;;;1.50;91.45;98606.16;4964878;28;101857;-72
2023/04/27 02:20:31;;;;;;;;;10.75;9.25;;;;;1.44;91.08;98604.06;4959165;28;102296;-73
2023/04/27 02:22:58;;;;;;;;;7.33;6.00;;;;;1.38;91.27;98601.16;4964460;28;108065;-74
2023/04/27 02:25:25;;;;;;;;;9.00;8.75;;;;;1.34;91.43;98597.94;4957857;28;102756;-73
2023/04/27 02:27:52;;;;;;;;;8.00;6.67;;;;;1.32;91.33;98595.41;4965062;28;101629;-75
2023/04/27 02:30:20;;;;;;;;;8.67;7.33;;;;;1.28;90.82;98598.50;4966047;28;101838;-74
2023/04/27 02:32:47;;;;;;;;;5.75;3.75;;;;;1.24;91.24;98594.44;4961389;28;105129;-74
2023/04/27 02:35:15;;;;;;;;;8.00;5.00;;;;;1.06;91.44;98564.19;4964166;28;102161;-73
2023/04/27 02:37:42;;;;;;;;;5.00;4.33;;;;;1.17;91.42;98596.81;4963928;28;101809;-74
2023/04/27 02:40:09;;;;;;;;;6.33;6.00;;;;;1.13;93.39;98591.91;4950883;28;102267;-74
2023/04/27 02:42:37;;;;;;;;;6.00;5.00;;;;;1.11;93.94;98592.09;4960630;28;103623;-74
2023/04/27 02:45:08;;;;;;;;;8.00;7.00;;;;;1.12;93.71;98592.94;4949687;28;101775;-73
2023/04/27 02:47:35;;;;;;;;;2.00;1.00;;;;;1.09;93.69;98596.69;4951721;28;101608;-74
2023/04/27 02:50:02;;;;;;;;;5.25;4.50;;;;;1.07;94.00;98596.03;4966484;28;103287;-72
2023/04/27 02:52:29;;;;;;;;;5.00;4.00;;;;;1.06;93.52;98598.81;4962644;28;103640;-74
2023/04/27 02:54:56;;;;;;;;;6.00;6.00;;;;;0.94;93.32;98590.16;4968358;28;102434;-74
2023/04/27 02:57:23;;;;;;;;;9.00;8.00;;;;;0.94;93.77;98594.63;4969640;28;101892;-73
2023/04/27 02:59:50;;;;;;;;;4.00;4.00;;;;;0.89;94.80;98597.72;4957655;28;106334;-73
2023/04/27 03:02:17;;;;;;;;;4.00;2.00;;;;;0.86;94.50;98590.81;4962056;28;103298;-73
2023/04/27 03:04:44;;;;;;;;;5.00;2.50;;;;;0.83;94.57;98587.63;4962777;28;101728;-73
2023/04/27 03:07:11;;;;;;;;;7.33;5.00;;;;;0.83;94.65;98593.78;4959884;28;101509;-73
2023/04/27 03:09:38;;;;;;;;;7.33;4.33;;;;;0.85;94.40;98599.81;4964792;28;101856;-73
2023/04/27 03:12:05;;;;;;;;;2.67;2.67;;;;;0.85;93.97;98601.63;4960835;28;103289;-73
2023/04/27 03:14:32;;;;;;;;;8.00;4.25;;;;;0.84;95.02;98607.94;4950821;28;102100;-71
2023/04/27 03:16:59;;;;;;;;;8.50;6.50;;;;;0.80;94.17;98594.06;4967988;28;101842;-73
2023/04/27 03:19:26;;;;;;;;;3.33;3.33;;;;;0.85;93.85;98601.63;4957880;28;101903;-73
2023/04/27 03:21:53;;;;;;;;;4.33;1.67;;;;;0.89;94.13;98614.53;4966515;28;102957;-73
2023/04/27 03:24:24;;;;;;;;;5.00;4.00;;;;;0.90;93.82;98610.84;4965176;28;101833;-74
2023/04/27 03:26:51;;;;;;;;;5.67;4.33;;;;;0.93;94.10;98614.22;4960647;28;101851;-73
2023/04/27 03:29:18;;;;;;;;;7.33;6.00;;;;;0.94;94.87;98611.44;4958540;28;102696;-73
2023/04/27 03:31:45;;;;;;;;;6.67;6.00;;;;;0.90;94.84;98613.50;4962427;28;103319;-73
2023/04/27 03:34:12;;;;;;;;;6.00;5.00;;;;;0.92;94.63;98612.53;4956195;28;101728;-72
2023/04/27 03:36:39;;;;;;;;;7.33;5.67;;;;;0.91;94.87;98611.69;4963810;28;101847;-74
2023/04/27 03:39:06;;;;;;;;;3.00;3.00;;;;;0.93;94.45;98622.22;4960323;28;104142;-72
2023/04/27 03:41:33;;;;;;;;;4.00;1.50;;;;;0.94;95.43;98622.09;4963209;27;103335;-74
2023/04/27 03:44:00;;;;;;;;;2.00;2.00;;;;;0.95;95.36;98625.56;4963929;28;101923;-74
2023/04/27 03:46:27;;;;;;;;;3.50;2.50;;;;;0.99;95.82;98634.97;4955483;28;102451;-73
2023/04/27 03:48:54;;;;;;;;;2.00;2.00;;;;;0.99;95.19;98634.97;4963778;27;101687;-73
2023/04/27 03:51:21;;;;;;;;;4.00;4.00;;;;;0.99;95.10;98635.78;4967391;28;103365;-73
2023/04/27 03:53:48;;;;;;;;;2.00;2.00;;;;;1.02;94.40;98643.53;4962274;27;103162;-73
2023/04/27 03:56:15;;;;;;;;;1.50;1.50;;;;;1.04;94.18;98635.38;4964296;28;101963;-73
2023/04/27 03:58:42;;;;;;;;;5.00;5.00;;;;;1.07;94.06;98645.75;4962647;28;101787;-74
2023/04/27 04:01:09;;;;;;;;;4.00;4.00;;;;;1.10;94.46;98642.81;4967954;27;103332;-73
2023/04/27 04:03:36;;;;;;;;;4.00;4.00;;;;;1.14;94.20;98644.19;4965379;28;102181;-72
2023/04/27 04:06:04;;;;;;;;;6.00;5.00;;;;;1.14;93.19;98647.72;4954302;28;102013;-73
2023/04/27 04:08:33;;;;;;;;;4.00;4.00;;;;;1.19;93.42;98644.63;5001522;28;101613;-74
2023/04/27 04:11:00;;;;;;;;;6.00;5.00;;;;;1.27;93.31;98658.06;4970184;28;103487;-74
2023/04/27 04:13:27;;;;;;;;;12.00;9.67;;;;;1.27;94.08;98655.41;4969159;28;103259;-74
2023/04/27 04:16:07;;;;;;;;;9.00;6.50;;;;;1.32;94.37;98654.00;4970847;28;102045;-73
2023/04/27 04:18:35;;;;;;;;;4.67;2.00;;;;;1.31;93.97;98647.00;4964217;28;101591;-73
2023/04/27 04:21:02;;;;;;;;;5.33;4.67;;;;;1.44;93.76;98654.69;4963631;28;108074;-73
2023/04/27 04:23:29;;;;;;;;;4.33;4.33;;;;;1.47;93.78;98651.75;4959108;28;102148;-73
2023/04/27 04:25:56;;;;;;;;;6.00;6.00;;;;;1.53;94.52;98645.81;4964449;28;102437;-72
2023/04/27 04:28:24;;;;;;;;;10.00;10.00;;;;;1.66;93.66;98656.22;4964631;28;101622;-74
2023/04/27 04:30:51;;;;;;;;;8.67;6.00;;;;;1.78;94.00;98655.88;4958972;28;106142;-73
2023/04/27 04:33:18;;;;;;;;;11.33;10.00;;;;;1.95;94.10;98662.28;4956458;28;101878;-72
2023/04/27 04:35:45;;;;;;;;;7.00;7.00;;;;;2.14;94.13;98653.38;4966672;28;102024;-74
2023/04/27 04:38:12;;;;;;;;;14.00;14.00;;;;;2.31;93.84;98655.25;4953074;28;101506;-73
2023/04/27 04:40:41;;;;;;;;;17.00;14.00;;;;;2.61;92.09;98668.28;4967729;28;103398;-72
2023/04/27 04:43:12;;;;;;;;;10.75;9.75;;;;;2.85;91.50;98674.91;4963394;28;101939;-73
2023/04/27 04:45:39;;;;;;;;;20.67;17.33;;;;;3.02;90.07;98668.72;4953614;28;101646;-72
2023/04/27 04:48:07;;;;;;;;;22.33;14.33;;;;;3.22;89.58;98672.09;4968887;28;106024;-73
2023/04/27 04:50:34;;;;;;;;;25.00;23.33;;;;;3.36;89.77;98661.72;4965858;28;108273;-72
2023/04/27 04:53:01;;;;;;;;;28.00;26.00;;;;;3.41;89.21;98656.75;4956814;28;101826;-73
2023/04/27 04:55:28;;;;;;;;;19.67;19.67;;;;;3.66;86.20;98684.50;4966184;28;101481;-73
2023/04/27 04:57:55;;;;;;;;;18.33;16.00;;;;;3.76;86.06;98671.03;4952437;28;101675;-73
2023/04/27 05:00:22;;;;;;;;;39.00;36.67;;;;;3.90;85.78;98681.16;4968168;28;103537;-74
2023/04/27 05:02:49;;;;;;;;;35.33;30.00;;;;;4.16;84.59;98687.34;4962343;28;102205;-73
2023/04/27 05:05:16;;;;;;;;;42.00;36.33;;;;;4.35;84.46;98671.06;4960950;28;101649;-74
2023/04/27 05:07:43;;;;;;;;;39.00;36.00;;;;;4.71;83.05;98686.94;4962026;28;101655;-74
2023/04/27 05:10:11;;;;;;;;;51.00;43.33;;;;;5.42;80.40;98681.06;4960643;28;103373;-74
2023/04/27 05:12:38;;;;;;;;;44.00;37.67;;;;;6.12;76.63;98685.75;4958937;28;101641;-72
2023/04/27 05:15:05;;;;;;;;;42.00;37.00;;;;;6.79;73.91;98678.16;4967591;28;102186;-74
2023/04/27 05:17:32;;;;;;;;;42.75;34.25;;;;;7.43;70.89;98673.41;4965955;28;101580;-74
2023/04/27 05:19:59;;;;;;;;;30.00;26.50;;;;;8.06;68.56;98679.22;4966104;28;102348;-74
2023/04/27 05:22:26;;;;;;;;;31.75;27.75;;;;;8.51;65.98;98683.66;4965340;28;101683;-74
2023/04/27 05:24:54;;;;;;;;;29.50;22.75;;;;;8.49;66.31;98674.09;4970613;28;101998;-74
2023/04/27 05:27:21;;;;;;;;;34.00;32.00;;;;;8.45;67.14;98680.88;4966811;28;101669;-74
2023/04/27 05:29:48;;;;;;;;;28.25;25.25;;;;;8.58;64.58;98686.47;4966903;28;103406;-75
2023/04/27 05:32:15;;;;;;;;;19.00;19.00;;;;;8.63;64.11;98689.44;4952683;28;103365;-74
2023/04/27 05:34:43;;;;;;;;;21.75;18.75;;;;;8.57;63.58;98697.41;4959489;28;101743;-73
2023/04/27 05:37:13;;;;;;;;;30.25;24.00;;;;;8.40;66.28;98694.91;4960368;28;101424;-74
2023/04/27 05:39:41;;;;;;;;;24.00;18.00;;;;;8.20;65.11;98690.19;4959344;28;103198;-74
2023/04/27 05:42:08;;;;;;;;;19.25;18.25;;;;;7.89;67.78;98701.94;4963781;28;101805;-73
2023/04/27 05:44:35;;;;;;;;;21.00;17.00;;;;;7.69;67.65;98703.47;4971801;28;101968;-74
2023/04/27 05:47:02;;;;;;;;;17.00;15.25;;;;;7.60;68.75;98707.25;4960735;28;101870;-74
2023/04/27 05:49:29;;;;;;;;;27.00;22.75;;;;;8.01;66.57;98708.56;4959444;28;103352;-73
2023/04/27 05:51:57;;;;;;;;;37.00;31.25;;;;;8.34;66.92;98703.72;4964191;28;101669;-73
2023/04/27 05:54:26;;;;;;;;;47.25;39.00;;;;;9.03;65.79;98703.44;4966142;28;102261;-73
2023/04/27 05:56:53;;;;;;;;;38.25;34.75;;;;;9.32;60.92;98708.78;4958607;27;102130;-75
2023/04/27 05:59:20;;;;;;;;;52.25;40.50;;;;;10.05;61.87;98708.44;4956299;28;103491;-74
2023/04/27 06:01:47;;;;;;;;;47.75;41.00;;;;;10.42;57.31;98711.88;4963872;28;103060;-74
2023/04/27 06:04:15;;;;;;;;;37.25;34.00;;;;;10.26;57.79;98707.63;4954326;28;103129;-74
2023/04/27 06:06:43;;;;;;;;;32.50;29.25;;;;;10.43;57.35;98703.56;4967190;28;101782;-73
2023/04/27 06:09:10;;;;;;;;;30.00;25.75;;;;;11.05;56.89;98718.91;4960041;28;103436;-74
2023/04/27 06:11:37;;;;;;;;;39.00;32.75;;;;;11.47;57.51;98713.25;4960423;28;102165;-72
2023/04/27 06:14:04;;;;;;;;;36.00;30.25;;;;;11.72;54.22;98710.81;4970582;27;101702;-74
2023/04/27 06:16:32;;;;;;;;;24.75;22.75;;;;;11.40;54.25;98706.97;4961675;27;101924;-74
2023/04/27 06:18:59;;;;;;;;;38.00;33.50;;;;;9.93;57.67;98714.56;4954196;28;103698;-74
2023/04/27 06:21:27;;;;;;;;;39.75;33.50;;;;;9.26;60.70;98718.47;4958812;28;102924;-74
2023/04/27 06:23:53;;;;;;;;;33.25;30.75;;;;;9.09;61.43;98718.88;4958614;28;102076;-75
2023/04/27 06:26:20;;;;;;;;;28.00;26.00;;;;;9.79;57.79;98721.72;4967689;28;102353;-74
2023/04/27 06:28:47;;;;;;;;;36.75;31.75;;;;;9.53;58.96;98727.69;4951469;28;103450;-81
2023/04/27 06:31:15;;;;;;;;;33.00;29.50;;;;;9.64;60.06;98726.31;4962157;28;103232;-75
2023/04/27 06:33:42;;;;;;;;;29.50;27.25;;;;;10.88;56.24;98722.97;4955778;28;101813;-73
2023/04/27 06:36:09;;;;;;;;;15.75;13.75;;;;;11.56;52.05;98722.84;4966864;28;101966;-75
2023/04/27 06:38:36;;;;;;;;;14.00;13.25;;;;;12.03;50.04;98721.06;4963794;27;103473;-74
2023/04/27 06:41:03;;;;;;;;;22.50;19.00;;;;;12.25;49.84;98727.97;4955531;28;101920;-75
2023/04/27 06:43:30;;;;;;;;;26.50;23.00;;;;;11.76;51.57;98727.50;4965725;28;101348;-75
2023/04/27 06:45:57;;;;;;;;;20.00;18.50;;;;;11.78;50.12;98723.56;4956231;28;104749;-73
2023/04/27 06:48:24;;;;;;;;;18.75;18.50;;;;;12.00;51.34;98721.50;4963847;28;103607;-74
2023/04/27 06:50:51;;;;;;;;;28.25;25.25;;;;;10.84;51.72;98727.13;4963579;28;102068;-74
2023/04/27 06:53:18;;;;;;;;;28.75;26.75;;;;;10.42;53.28;98719.97;4974998;28;101856;-74
2023/04/27 06:55:45;;;;;;;;;13.00;11.50;;;;;10.95;53.75;98721.13;4954604;28;101741;-74
2023/04/27 06:58:14;;;;;;;;;13.00;12.00;;;;;11.40;50.20;98717.78;4964418;28;103527;-74
2023/04/27 07:00:41;;;;;;;;;13.25;10.00;;;;;11.89;49.50;98722.09;4957865;28;101942;-73
2023/04/27 07:03:08;;;;;;;;;5.00;3.00;;;;;12.17;49.13;98714.63;4952712;28;101728;-73
2023/04/27 07:05:35;;;;;;;;;12.00;9.00;;;;;12.30;48.51;98716.50;4965532;28;101559;-74
2023/04/27 07:08:02;;;;;;;;;21.25;19.00;;;;;10.81;51.23;98730.25;4963666;28;103397;-74
2023/04/27 07:10:34;;;;;;;;;21.00;18.25;;;;;9.50;52.79;98728.03;4965458;28;101668;-74
2023/04/27 07:13:01;;;;;;;;;15.00;14.00;;;;;9.38;52.32;98724.19;4965225;28;101621;-74
2023/04/27 07:15:30;;;;;;;;;13.00;12.25;;;;;8.84;53.85;98689.50;4970053;28;102244;-74
2023/04/27 07:17:57;;;;;;;;;20.25;14.50;;;;;8.69;54.30;98726.41;4963441;28;103462;-74
2023/04/27 07:20:24;;;;;;;;;15.75;15.25;;;;;8.60;54.82;98722.13;4964262;28;101591;-73
2023/04/27 07:22:51;;;;;;;;;13.50;11.75;;;;;8.29;54.74;98729.50;4969913;28;101703;-74
2023/04/27 07:25:18;;;;;;;;;12.25;11.00;;;;;8.03;55.26;98730.75;4959864;28;102377;-73
2023/04/27 07:27:45;;;;;;;;;11.75;10.75;;;;;8.19;54.46;98731.66;4961878;28;103641;-74
2023/04/27 07:30:13;;;;;;;;;16.75;15.25;;;;;7.89;56.17;98736.94;4959280;28;101858;-74
2023/04/27 07:32:40;;;;;;;;;12.25;12.25;;;;;7.89;55.35;98731.56;4964095;28;102257;-73
2023/04/27 07:35:10;;;;;;;;;15.75;13.00;;;;;8.10;55.38;98721.97;4971795;28;102674;-74
2023/04/27 07:37:37;;;;;;;;;12.50;10.25;;;;;8.55;55.15;98716.50;4966166;27;107958;-74
2023/04/27 07:40:13;;;;;;;;;16.00;13.25;;;;;9.01;54.21;98721.66;4971578;28;101344;-74
2023/04/27 07:42:40;;;;;;;;;11.00;10.50;;;;;9.83;52.00;98718.44;4965573;28;101472;-73
2023/04/27 07:45:08;;;;;;;;;13.00;11.50;;;;;9.84;50.05;98724.66;4967687;28;101811;-73
2023/04/27 07:47:36;;;;;;;;;14.25;13.00;;;;;9.43;50.71;98718.22;4946854;28;107864;-74
2023/04/27 07:50:03;;;;;;;;;11.50;11.25;;;;;9.76;52.26;98717.53;4970503;28;101611;-73
2023/04/27 07:52:30;;;;;;;;;11.25;8.25;;;;;9.67;48.88;98718.69;4964670;28;101465;-76
2023/04/27 07:54:57;;;;;;;;;8.00;7.50;;;;;9.40;48.77;98717.59;4959793;28;102277;-74
2023/04/27 07:57:24;;;;;;;;;10.00;10.00;;;;;8.90;50.45;98720.28;4960352;28;103430;-74
2023/04/27 07:59:52;;;;;;;;;11.75;10.75;;;;;8.26;51.27;98727.19;4964501;28;101894;-74
2023/04/27 08:02:19;;;;;;;;;14.75;11.00;;;;;7.88;52.01;98724.47;4956178;28;101763;-74
2023/04/27 08:04:47;;;;;;;;;12.50;10.50;;;;;8.30;52.65;98726.66;4965235;28;101699;-74
2023/04/27 08:07:16;;;;;;;;;6.00;5.00;;;;;8.88;51.01;98731.25;4966688;28;103906;-73
2023/04/27 08:09:44;;;;;;;;;5.50;5.50;;;;;8.98;51.24;98735.50;4966659;28;101563;-75
2023/04/27 08:12:11;;;;;;;;;4.50;4.50;;;;;9.21;48.71;98728.13;4964637;28;101705;-74
2023/04/27 08:14:37;;;;;;;;;5.00;4.00;;;;;9.49;47.38;98726.41;4971234;28;101894;-73
2023/04/27 08:17:05;;;;;;;;;9.50;9.00;;;;;9.14;48.81;98729.94;4964646;28;107845;-74
2023/04/27 08:19:32;;;;;;;;;4.25;4.25;;;;;9.48;47.08;98724.72;4964188;28;102007;-74
2023/04/27 08:21:59;;;;;;;;;7.75;6.50;;;;;9.55;47.22;98722.06;4963629;28;101791;-74
2023/04/27 08:24:26;;;;;;;;;8.25;8.00;;;;;9.31;47.47;98725.97;4962893;28;101551;-74
2023/04/27 08:26:53;;;;;;;;;13.00;10.75;;;;;8.88;48.32;98733.94;4960460;28;103331;-74
2023/04/27 08:29:21;;;;;;;;;13.00;10.00;;;;;8.62;51.47;98724.66;4964652;28;102088;-74
2023/04/27 08:31:54;;;;;;;;;11.75;11.00;;;;;8.51;48.72;98725.94;4961123;28;107470;-73
2023/04/27 08:34:22;;;;;;;;;8.00;7.50;;;;;8.84;49.98;98726.41;4963330;28;101863;-75
2023/04/27 08:36:50;;;;;;;;;8.00;7.50;;;;;8.10;50.99;98717.41;4963545;28;103341;-74
2023/04/27 08:39:17;;;;;;;;;6.75;6.75;;;;;8.07;51.92;98737.47;4965918;27;101503;-73
2023/04/27 08:41:45;;;;;;;;;9.25;9.00;;;;;7.74;51.72;98746.84;4957225;28;101652;-74
2023/04/27 08:44:12;;;;;;;;;8.75;8.75;;;;;7.51;52.64;98760.28;4960777;28;101838;-75
2023/04/27 08:46:39;;;;;;;;;11.25;9.75;;;;;7.61;53.49;98760.00;4951895;28;103330;-72
2023/04/27 08:49:06;;;;;;;;;12.00;10.25;;;;;7.70;50.54;98748.19;4964839;28;101773;-74
2023/04/27 08:51:34;;;;;;;;;6.75;5.75;;;;;8.05;49.05;98739.50;4965724;28;106204;-74
2023/04/27 08:54:01;;;;;;;;;4.50;4.50;;;;;8.34;48.54;98740.59;4956640;28;102402;-74
2023/04/27 08:56:29;;;;;;;;;8.75;6.75;;;;;8.43;50.38;98744.88;4965218;28;103529;-74
2023/04/27 08:58:57;;;;;;;;;5.00;5.00;;;;;8.64;49.12;98747.72;4965234;28;101789;-74
2023/04/27 09:01:26;;;;;;;;;6.00;4.75;;;;;8.78;47.21;98746.06;4962967;28;101926;-74
2023/04/27 09:03:58;;;;;;;;;6.00;5.50;;;;;8.70;46.66;98738.88;4963657;28;101509;-74
2023/04/27 09:06:32;;;;;;;;;3.50;3.25;;;;;9.17;47.45;98734.94;4959435;28;104622;-75
2023/04/27 09:09:00;;;;;;;;;5.00;4.50;;;;;9.25;46.02;98726.72;4965757;28;101902;-74
2023/04/27 09:11:32;;;;;;;;;9.25;8.50;;;;;9.35;46.31;98738.91;4963698;28;101548;-74
2023/04/27 09:14:00;;;;;;;;;7.50;5.75;;;;;9.60;44.77;98739.38;4970045;28;101633;-74
2023/04/27 09:16:28;;;;;;;;;3.00;3.00;;;;;10.02;44.11;98727.75;4970679;28;103097;-74
2023/04/27 09:18:57;;;;;;;;;3.75;3.50;;;;;9.77;43.54;98718.38;4960413;28;101302;-73
2023/04/27 09:21:30;;;;;;;;;11.25;9.75;;;;;9.05;47.13;98729.16;4963215;28;106984;-74
2023/04/27 09:23:57;;;;;;;;;7.00;6.50;;;;;8.86;48.29;98735.16;4998475;28;101607;-75
2023/04/27 09:26:26;;;;;;;;;11.00;8.00;;;;;8.25;50.08;98742.50;4954765;28;105827;-74
2023/04/27 09:28:57;;;;;;;;;8.00;8.00;;;;;8.44;50.68;98736.63;4956287;28;101867;-74
2023/04/27 09:31:34;;;;;;;;;6.50;6.00;;;;;8.61;50.34;98741.84;4966529;28;101961;-74
2023/04/27 09:34:01;;;;;;;;;5.00;5.00;;;;;8.71;48.45;98737.84;4964611;28;101590;-73
2023/04/27 09:36:31;;;;;;;;;5.25;5.25;;;;;8.92;47.06;98735.25;4959546;28;103618;-75
2023/04/27 09:39:03;;;;;;;;;8.75;7.75;;;;;8.65;45.53;98737.75;4960352;28;101496;-74
2023/04/27 09:41:32;;;;;;;;;4.50;4.50;;;;;9.10;47.72;98740.25;4952980;28;101474;-74
2023/04/27 09:44:00;;;;;;;;;6.00;5.25;;;;;9.33;47.38;98727.44;4956594;28;101586;-74
2023/04/27 09:46:28;;;;;;;;;5.25;5.00;;;;;8.87;45.45;98670.25;4959828;28;103487;-74
2023/04/27 09:48:56;;;;;;;;;7.25;7.00;;;;;9.38;44.57;98725.03;4956806;28;101517;-74
2023/04/27 09:51:23;;;;;;;;;5.25;4.75;;;;;10.02;44.57;98722.34;4965425;28;101667;-74
2023/04/27 09:53:57;;;;;;;;;10.00;9.00;;;;;10.05;44.63;98726.50;4964389;28;101975;-74
2023/04/27 09:56:30;;;;;;;;;9.00;6.00;;;;;9.80;42.40;98716.13;4961942;28;103468;-74
2023/04/27 09:59:36;;;;;;;;;6.50;6.00;;;;;10.30;41.06;98717.00;4965795;28;102140;-74
2023/04/27 10:02:05;;;;;;;;;8.00;6.00;;;;;10.56;38.83;98722.59;4960749;28;101884;-73
2023/04/27 10:05:21;;;;;;;;;6.00;5.50;;;;;10.30;39.33;98719.69;4958942;28;102222;-73
2023/04/27 10:07:48;;;;;;;;;6.00;6.00;;;;;9.62;40.91;98721.13;4962326;27;107962;-73
2023/04/27 10:10:19;;;;;;;;;6.50;6.50;;;;;9.56;42.50;98724.59;4959750;28;101808;-73
2023/04/27 10:13:02;;;;;;;;;9.00;8.00;;;;;9.67;41.36;98725.97;4963690;28;101554;-73
2023/04/27 10:15:29;;;;;;;;;8.00;6.25;;;;;9.63;43.08;98732.78;4956314;28;101658;-73
2023/04/27 10:18:03;;;;;;;;;12.00;9.75;;;;;9.20;45.44;98731.84;4958295;28;102847;-74
2023/04/27 10:20:32;;;;;;;;;9.25;8.25;;;;;8.79;46.91;98726.97;4963888;28;101929;-72
2023/04/27 10:22:59;;;;;;;;;9.75;9.75;;;;;8.68;48.16;98737.41;4955627;28;101778;-73
2023/04/27 10:25:40;;;;;;;;;9.00;8.25;;;;;8.57;47.68;98737.84;4968473;28;101916;-74
2023/04/27 10:28:14;;;;;;;;;13.25;9.00;;;;;8.62;48.67;98738.97;4964805;28;103344;-73
2023/04/27 10:30:45;;;;;;;;;10.00;8.75;;;;;8.78;50.16;98732.56;4958308;28;101839;-74
2023/04/27 10:33:16;;;;;;;;;9.75;8.75;;;;;8.86;49.46;98735.16;4961644;28;103100;-73
2023/04/27 10:35:52;;;;;;;;;9.00;8.50;;;;;8.98;49.35;98727.44;4963303;28;101505;-74
2023/04/27 10:38:25;;;;;;;;;8.50;8.50;;;;;9.18;46.63;98736.63;4962234;28;107895;-73
2023/04/27 10:41:01;;;;;;;;;8.00;6.50;;;;;9.38;48.40;98729.56;4966655;28;101885;-74
2023/04/27 10:43:30;;;;;;;;;15.25;10.00;;;;;9.15;47.26;98736.97;4964676;28;101741;-74
2023/04/27 10:46:12;;;;;;;;;10.00;9.75;;;;;9.45;47.62;98741.31;4963917;28;102527;-73
2023/04/27 10:48:41;;;;;;;;;4.25;4.25;;;;;10.09;45.24;98728.63;4961478;28;103397;-74
2023/04/27 10:51:08;;;;;;;;;8.00;6.00;;;;;10.14;45.83;98738.84;4962742;28;101779;-74
2023/04/27 10:53:36;;;;;;;;;9.50;9.25;;;;;10.04;45.28;98735.66;4963438;28;101851;-74
2023/04/27 10:56:05;;;;;;;;;5.50;5.00;;;;;10.38;44.55;98735.75;4964727;28;101741;-75
2023/04/27 10:58:34;;;;;;;;;10.00;6.00;;;;;10.46;45.28;98735.63;4965423;28;103355;-74
2023/04/27 11:01:25;;;;;;;;;11.00;6.00;;;;;10.60;43.37;98736.53;4959259;28;101800;-73
2023/04/27 11:04:00;;;;;;;;;4.00;4.00;;;;;10.96;43.74;98730.94;4953272;28;101775;-74
2023/04/27 11:06:29;;;;;;;;;6.75;4.75;;;;;11.24;44.76;98736.28;4971885;28;101918;-74
2023/04/27 11:08:56;;;;;;;;;9.25;7.00;;;;;11.39;43.66;98732.34;4968128;28;103499;-72
2023/04/27 11:11:24;;;;;;;;;11.00;7.25;;;;;10.60;42.86;98731.97;4966422;28;102206;-74
2023/04/27 11:14:02;;;;;;;;;12.00;9.00;;;;;11.24;44.09;98730.84;4963562;27;101721;-73
2023/04/27 11:16:32;;;;;;;;;5.00;5.00;;;;;11.63;43.64;98734.53;4965739;27;101726;-74
2023/04/27 11:19:05;;;;;;;;;5.00;4.00;;;;;12.08;41.94;98734.84;4961744;28;103438;-74
2023/04/27 11:21:32;;;;;;;;;2.75;2.75;;;;;12.42;40.56;98726.53;4963838;28;101752;-72
2023/04/27 11:24:04;;;;;;;;;7.25;5.00;;;;;11.79;39.96;98735.22;4966355;28;101675;-74
2023/04/27 11:26:32;;;;;;;;;6.00;5.50;;;;;11.83;40.45;98728.34;4963462;28;101582;-74
2023/04/27 11:29:01;;;;;;;;;3.50;3.00;;;;;12.13;40.10;98726.91;4968884;28;103518;-73
2023/04/27 11:31:38;;;;;;;;;3.25;3.25;;;;;11.90;38.27;98721.06;4962107;28;101933;-74
2023/04/27 11:34:06;;;;;;;;;5.00;5.00;;;;;11.87;39.23;98724.19;4967186;28;101670;-73